Colfax, Washington
Current Conditions -  °F | °C
As of 10:53 AM on Thursday 27 Nov 2014 (Local Time) from KPUW Reporting Station
Overcast Overcast  
Wind Chill: 55°   Ceiling: 6500
Heat Index: 55°   Visibility: 10mi
Dew Point: 41°   Wind: 6mph
Humidity: 59%   Direction: 180°S
Pressure: 29.94"   Gusts: NA
Location:  46.88°N, 117.36°W
Report Text: KPUW 271853Z AUTO 18005KT 10SM OVC065 13/05 A2994 RMK AO2 SLP141 T01280050
Loading
Personal Weather Stations






























Interactive Weather Map New forecast layout! Learn more

10-Day Weather Forecast

Advertisements
Track Severe Weather on mobile